createdAt,value
2019-05-18T00:00:47.731Z,36.12
2019-05-18T00:01:47.749Z,32.21
2019-05-18T00:02:47.711Z,30.91
2019-05-18T00:03:47.697Z,35.49
2019-05-18T00:04:47.692Z,17.57
2019-05-18T00:05:47.683Z,35.02
2019-05-18T00:06:47.666Z,23.16
2019-05-18T00:07:47.660Z,30.79
2019-05-18T00:08:47.639Z,30.91
2019-05-18T00:09:47.635Z,31.38
2019-05-18T00:10:47.637Z,25.55
2019-05-18T00:11:47.605Z,35.26
2019-05-18T00:12:47.610Z,30.48
2019-05-18T00:13:47.588Z,32.53
2019-05-18T00:14:47.577Z,31.28
2019-05-18T00:15:47.805Z,36.05
2019-05-18T00:16:47.544Z,30.14
2019-05-18T00:17:47.575Z,36.81
2019-05-18T00:18:47.560Z,38.12
2019-05-18T00:19:47.514Z,39.71
2019-05-18T00:20:47.503Z,38.95
2019-05-18T00:21:47.542Z,35.38
2019-05-18T00:22:47.488Z,32.35
2019-05-18T00:23:47.469Z,35.42
2019-05-18T00:24:47.458Z,33.87
2019-05-18T00:25:47.447Z,31.49
2019-05-18T00:26:47.442Z,34.55
2019-05-18T00:27:47.429Z,39.29
2019-05-18T00:28:47.419Z,30.59
2019-05-18T00:29:47.421Z,35.32
2019-05-18T00:30:47.396Z,37.13
2019-05-18T00:31:47.379Z,34.57
2019-05-18T00:32:47.382Z,37.35
2019-05-18T00:33:47.355Z,28.44
2019-05-18T00:34:47.352Z,31.94
2019-05-18T00:35:47.338Z,35.82
2019-05-18T00:36:47.325Z,24.89
2019-05-18T00:37:47.309Z,35.37
2019-05-18T00:38:47.316Z,37.26
2019-05-18T00:39:47.296Z,23.30
2019-05-18T00:40:47.304Z,39.00
2019-05-18T00:41:47.260Z,23.64
2019-05-18T00:42:47.253Z,33.71
2019-05-18T00:43:47.244Z,26.97
2019-05-18T00:44:47.236Z,36.21
2019-05-18T00:45:47.221Z,36.83
2019-05-18T00:46:47.234Z,28.87
2019-05-18T00:47:47.207Z,37.65
2019-05-18T00:48:47.186Z,36.55
2019-05-18T00:49:47.185Z,23.64
2019-05-18T00:50:47.167Z,34.29
2019-05-18T00:51:47.163Z,37.57
2019-05-18T00:52:47.144Z,32.14
2019-05-18T00:53:47.130Z,30.95
2019-05-18T00:54:47.120Z,41.36
2019-05-18T00:55:47.110Z,41.46
2019-05-18T00:56:47.114Z,39.81
2019-05-18T00:57:47.100Z,27.10
2019-05-18T00:58:47.077Z,27.67
2019-05-18T00:59:47.065Z,35.89
2019-05-18T01:00:47.052Z,20.67
2019-05-18T01:01:47.054Z,37.06
2019-05-18T01:02:47.045Z,30.72
2019-05-18T01:03:47.024Z,31.50
2019-05-18T01:04:47.013Z,31.52
2019-05-18T01:05:46.995Z,37.73
2019-05-18T01:06:47.016Z,36.15
2019-05-18T01:07:46.977Z,46.97
2019-05-18T01:08:46.978Z,43.31
2019-05-18T01:09:46.959Z,28.76
2019-05-18T01:10:46.948Z,43.98
2019-05-18T01:11:46.937Z,36.30
2019-05-18T01:12:46.923Z,34.86
2019-05-18T01:13:46.910Z,39.89
2019-05-18T01:14:46.925Z,33.10
2019-05-18T01:15:46.886Z,37.12
2019-05-18T01:16:46.879Z,34.87
2019-05-18T01:17:57.061Z,28.99
2019-05-18T01:18:47.881Z,26.68
2019-05-18T01:19:46.862Z,39.85
2019-05-18T01:20:46.843Z,38.95
2019-05-18T01:21:46.824Z,40.33
2019-05-18T01:22:46.808Z,36.99
2019-05-18T01:23:46.824Z,37.06
2019-05-18T01:24:46.785Z,40.49
2019-05-18T01:25:46.820Z,33.82
2019-05-18T01:26:46.806Z,28.52
2019-05-18T01:27:46.753Z,32.08
2019-05-18T01:28:47.033Z,32.00
2019-05-18T01:29:46.740Z,42.87
2019-05-18T01:30:46.728Z,28.44
2019-05-18T01:31:46.731Z,39.42
2019-05-18T01:32:46.701Z,33.36
2019-05-18T01:33:46.692Z,27.11
2019-05-18T01:34:46.675Z,37.87
2019-05-18T01:35:46.663Z,35.15
2019-05-18T01:36:46.684Z,25.12
2019-05-18T01:37:46.660Z,36.43
2019-05-18T01:38:46.633Z,43.20
2019-05-18T01:39:46.619Z,39.42
2019-05-18T01:40:46.606Z,32.33
2019-05-18T01:41:46.603Z,35.47
2019-05-18T01:42:46.617Z,32.68
2019-05-18T01:43:46.575Z,30.85
2019-05-18T01:44:46.564Z,28.32
2019-05-18T01:45:46.557Z,35.51
2019-05-18T01:46:46.545Z,34.75
2019-05-18T01:47:46.539Z,35.66
2019-05-18T01:48:46.535Z,37.66
2019-05-18T01:49:46.514Z,39.74
2019-05-18T01:50:46.499Z,42.91
2019-05-18T01:51:46.504Z,37.69
2019-05-18T01:52:46.471Z,37.34
2019-05-18T01:53:46.477Z,43.40
2019-05-18T01:54:46.447Z,43.45
2019-05-18T01:55:46.465Z,36.59
2019-05-18T01:56:46.434Z,25.87
2019-05-18T01:57:46.427Z,39.85
2019-05-18T01:58:46.415Z,39.40
2019-05-18T01:59:46.408Z,41.80
2019-05-18T02:00:46.385Z,31.84
2019-05-18T02:01:46.380Z,41.80
2019-05-18T02:02:46.364Z,45.76
2019-05-18T02:03:46.355Z,33.59
2019-05-18T02:04:46.340Z,31.36
2019-05-18T02:05:46.349Z,46.99
2019-05-18T02:06:46.363Z,35.97
2019-05-18T02:07:46.306Z,41.05
2019-05-18T02:08:46.332Z,35.13
2019-05-18T02:09:46.286Z,41.80
2019-05-18T02:10:46.276Z,36.95
2019-05-18T02:11:46.264Z,35.25
2019-05-18T02:12:46.252Z,32.50
2019-05-18T02:13:46.245Z,36.20
2019-05-18T02:14:46.240Z,38.92
2019-05-18T02:15:46.222Z,35.90
2019-05-18T02:16:46.221Z,47.59
2019-05-18T02:17:46.200Z,37.83
2019-05-18T02:18:46.204Z,39.89
2019-05-18T02:19:46.176Z,38.73
2019-05-18T02:20:46.163Z,36.22
2019-05-18T02:21:46.166Z,38.74
2019-05-18T02:22:46.142Z,38.14
2019-05-18T02:23:46.136Z,35.67
2019-05-18T02:24:46.118Z,36.60
2019-05-18T02:25:46.122Z,33.85
2019-05-18T02:26:46.097Z,29.26
2019-05-18T02:27:46.110Z,42.08
2019-05-18T02:28:46.110Z,39.92
2019-05-18T02:29:46.065Z,29.89
2019-05-18T02:30:46.055Z,38.91
2019-05-18T02:31:46.075Z,37.33
2019-05-18T02:32:46.034Z,32.56
2019-05-18T02:33:46.032Z,39.02
2019-05-18T02:34:46.018Z,41.24
2019-05-18T02:35:45.997Z,38.11
2019-05-18T02:36:45.978Z,41.20
2019-05-18T02:37:45.989Z,42.42
2019-05-18T02:38:45.966Z,43.95
2019-05-18T02:39:45.953Z,36.84
2019-05-18T02:40:45.952Z,44.10
2019-05-18T02:41:45.955Z,40.81
2019-05-18T02:42:45.928Z,37.04
2019-05-18T02:43:45.912Z,34.83
2019-05-18T02:44:45.930Z,40.59
2019-05-18T02:45:45.887Z,40.85
2019-05-18T02:46:45.897Z,35.70
2019-05-18T02:47:45.864Z,38.08
2019-05-18T02:48:50.059Z,32.72
2019-05-18T02:49:45.847Z,43.91
2019-05-18T02:50:45.866Z,46.97
2019-05-18T02:51:45.826Z,49.04
2019-05-18T02:52:45.814Z,47.87
2019-05-18T02:53:45.899Z,35.35
2019-05-18T02:54:45.800Z,40.16
2019-05-18T02:55:45.789Z,37.27
2019-05-18T02:56:45.766Z,47.13
2019-05-18T02:57:45.761Z,43.00
2019-05-18T02:58:45.741Z,41.44
2019-05-18T02:59:45.737Z,42.54
2019-05-18T03:00:45.731Z,39.90
2019-05-18T03:01:45.738Z,40.76
2019-05-18T03:02:45.726Z,41.19
2019-05-18T03:03:45.694Z,27.55
2019-05-18T03:04:45.680Z,36.11
2019-05-18T03:05:45.669Z,37.82
2019-05-18T03:06:45.683Z,47.82
2019-05-18T03:07:45.660Z,32.62
2019-05-18T03:08:45.633Z,35.64
2019-05-18T03:09:45.621Z,32.51
2019-05-18T03:10:45.612Z,46.60
2019-05-18T03:11:45.601Z,41.27
2019-05-18T03:12:45.599Z,32.71
2019-05-18T03:13:45.586Z,40.90
2019-05-18T03:14:45.635Z,45.90
2019-05-18T03:15:45.555Z,42.48
2019-05-18T03:16:45.550Z,48.41
2019-05-18T03:17:45.539Z,38.69
2019-05-18T03:18:45.547Z,42.89
2019-05-18T03:19:45.514Z,44.84
2019-05-18T03:20:45.516Z,40.55
2019-05-18T03:21:45.492Z,42.08
2019-05-18T03:22:45.485Z,44.46
2019-05-18T03:23:45.501Z,43.65
2019-05-18T03:24:45.483Z,48.66
2019-05-18T03:25:45.449Z,35.35
2019-05-18T03:26:45.435Z,41.63
2019-05-18T03:27:45.438Z,39.13
2019-05-18T03:28:45.468Z,34.29
2019-05-18T03:29:45.418Z,44.19
2019-05-18T03:30:45.389Z,46.33
2019-05-18T03:31:45.457Z,38.62
2019-05-18T03:32:45.365Z,36.78
2019-05-18T03:33:45.371Z,38.28
2019-05-18T03:34:45.366Z,47.88
2019-05-18T03:35:45.355Z,35.93
2019-05-18T03:36:45.329Z,41.36
2019-05-18T03:37:45.317Z,41.64
2019-05-18T03:38:45.303Z,45.08
2019-05-18T03:39:45.298Z,45.27
2019-05-18T03:40:45.340Z,48.20
2019-05-18T03:41:45.278Z,44.93
2019-05-18T03:42:45.254Z,45.34
2019-05-18T03:43:45.242Z,47.82
2019-05-18T03:44:45.234Z,49.18
2019-05-18T03:45:45.221Z,45.75
2019-05-18T03:46:45.229Z,37.11
2019-05-18T03:47:45.201Z,42.60
2019-05-18T03:48:45.230Z,43.18
2019-05-18T03:49:45.198Z,46.55
2019-05-18T03:50:45.170Z,43.75
2019-05-18T03:51:45.153Z,49.01
2019-05-18T03:52:45.161Z,50.82
2019-05-18T03:53:45.130Z,48.55
2019-05-18T03:54:45.118Z,49.16
2019-05-18T03:55:45.114Z,45.81
2019-05-18T03:56:45.096Z,52.24
2019-05-18T03:57:45.087Z,54.04
2019-05-18T03:58:45.073Z,49.13
2019-05-18T03:59:45.067Z,50.90
2019-05-18T04:00:45.053Z,47.06
2019-05-18T04:01:45.050Z,48.32
2019-05-18T04:02:45.035Z,52.12
2019-05-18T04:03:45.037Z,55.42
2019-05-18T04:04:45.084Z,49.74
2019-05-18T04:05:44.997Z,53.71
2019-05-18T04:06:45.000Z,47.89
2019-05-18T04:07:44.978Z,52.57
2019-05-18T04:08:44.991Z,52.52
2019-05-18T04:09:44.955Z,51.41
2019-05-18T04:10:44.942Z,50.84
2019-05-18T04:11:44.928Z,52.48
2019-05-18T04:12:45.003Z,52.10
2019-05-18T04:13:44.904Z,49.09
2019-05-18T04:14:44.911Z,53.32
2019-05-18T04:15:44.881Z,52.26
2019-05-18T04:16:44.874Z,56.09
2019-05-18T04:17:44.869Z,53.25
2019-05-18T04:18:44.971Z,56.28
2019-05-18T04:19:47.363Z,52.61
2019-05-18T04:20:44.857Z,55.74
2019-05-18T04:21:44.818Z,54.80
2019-05-18T04:22:44.799Z,56.63
2019-05-18T04:23:44.816Z,56.01
2019-05-18T04:24:44.797Z,58.21
2019-05-18T04:25:44.786Z,58.89
2019-05-18T04:26:44.753Z,57.36
2019-05-18T04:27:44.749Z,58.19
2019-05-18T04:28:44.734Z,56.73
2019-05-18T04:29:44.729Z,55.72
2019-05-18T04:30:44.718Z,57.46
2019-05-18T04:31:44.725Z,56.04
2019-05-18T04:32:44.692Z,57.69
2019-05-18T04:33:44.688Z,56.24
2019-05-18T04:34:44.688Z,55.52
2019-05-18T04:35:44.657Z,55.56
2019-05-18T04:36:44.652Z,58.94
2019-05-18T04:37:44.631Z,58.68
2019-05-18T04:38:44.626Z,54.11
2019-05-18T04:39:44.613Z,61.36
2019-05-18T04:40:44.601Z,56.01
2019-05-18T04:41:44.603Z,54.42
2019-05-18T04:42:44.597Z,50.83
2019-05-18T04:43:44.569Z,53.27
2019-05-18T04:44:44.555Z,55.31
2019-05-18T04:45:44.552Z,58.31
2019-05-18T04:46:44.527Z,51.72
2019-05-18T04:47:48.317Z,55.05
2019-05-18T04:48:44.512Z,57.82
2019-05-18T04:49:44.506Z,54.21
2019-05-18T04:50:44.492Z,56.41
2019-05-18T04:51:44.474Z,54.19
2019-05-18T04:52:44.467Z,66.17
2019-05-18T04:53:44.459Z,64.53
2019-05-18T04:54:44.461Z,64.93
2019-05-18T04:55:44.455Z,61.81
2019-05-18T04:56:44.449Z,65.17
2019-05-18T04:57:44.407Z,61.10
2019-05-18T04:58:44.410Z,68.78
2019-05-18T04:59:44.411Z,72.23
2019-05-18T05:00:44.377Z,70.86
2019-05-18T05:01:44.369Z,69.52
2019-05-18T05:02:45.369Z,68.82
2019-05-18T05:03:44.343Z,72.56
2019-05-18T05:04:44.337Z,72.42
2019-05-18T05:05:44.319Z,73.32
2019-05-18T05:06:44.310Z,66.20
2019-05-18T05:07:44.297Z,66.35
2019-05-18T05:08:44.284Z,80.04
2019-05-18T05:09:44.270Z,73.30
2019-05-18T05:10:44.276Z,74.10
2019-05-18T05:11:44.247Z,70.74
2019-05-18T05:12:44.243Z,81.22
2019-05-18T05:13:44.238Z,76.08
2019-05-18T05:14:44.214Z,74.07
2019-05-18T05:15:44.205Z,82.66
2019-05-18T05:16:44.196Z,74.50
2019-05-18T05:17:44.190Z,87.49
2019-05-18T05:18:44.175Z,79.55
2019-05-18T05:19:44.160Z,68.98
2019-05-18T05:20:44.187Z,74.82
2019-05-18T05:21:44.141Z,88.46
2019-05-18T05:22:44.168Z,84.66
2019-05-18T05:23:44.139Z,80.30
2019-05-18T05:24:44.104Z,88.27
2019-05-18T05:25:44.090Z,74.13
2019-05-18T05:26:44.091Z,84.10
2019-05-18T05:27:44.094Z,74.45
2019-05-18T05:28:44.061Z,91.75
2019-05-18T05:29:44.049Z,83.07
2019-05-18T05:30:44.037Z,80.68
2019-05-18T05:31:44.029Z,61.76
2019-05-18T05:32:44.036Z,73.05
2019-05-18T05:33:44.009Z,72.10
2019-05-18T05:34:44.000Z,81.93
2019-05-18T05:35:43.981Z,49.35
2019-05-18T05:36:43.973Z,61.37
2019-05-18T05:37:43.965Z,71.01
2019-05-18T05:38:43.959Z,72.16
2019-05-18T05:39:43.963Z,82.05
2019-05-18T05:40:43.925Z,65.05
2019-05-18T05:41:43.931Z,66.36
2019-05-18T05:42:44.495Z,62.65
2019-05-18T05:43:43.909Z,43.72
2019-05-18T05:44:43.915Z,68.14
2019-05-18T05:45:43.867Z,52.40
2019-05-18T05:46:43.859Z,66.76
2019-05-18T05:47:43.865Z,59.05
2019-05-18T05:48:43.837Z,55.62
2019-05-18T05:49:43.833Z,47.52
2019-05-18T05:50:43.823Z,57.66
2019-05-18T05:51:43.801Z,54.88
2019-05-18T05:52:43.794Z,58.89
2019-05-18T05:53:43.785Z,57.74
2019-05-18T05:54:43.823Z,43.60
2019-05-18T05:55:43.780Z,56.59
2019-05-18T05:56:43.745Z,45.34
2019-05-18T05:57:43.739Z,36.23
2019-05-18T05:58:43.724Z,34.62
2019-05-18T05:59:43.717Z,46.15
2019-05-18T06:00:43.718Z,42.17
2019-05-18T06:01:43.883Z,44.57
2019-05-18T06:02:43.676Z,44.50
2019-05-18T06:03:43.682Z,44.36
2019-05-18T06:04:43.672Z,44.27
2019-05-18T06:05:43.654Z,32.35
2019-05-18T06:06:43.709Z,44.78
2019-05-18T06:07:43.626Z,33.13
2019-05-18T06:08:43.616Z,44.18
2019-05-18T06:09:43.600Z,41.67
2019-05-18T06:10:43.596Z,39.24
2019-05-18T06:11:43.590Z,27.29
2019-05-18T06:12:43.567Z,45.07
2019-05-18T06:13:43.560Z,43.49
2019-05-18T06:14:43.546Z,40.12
2019-05-18T06:15:43.544Z,43.49
2019-05-18T06:16:43.521Z,34.23
2019-05-18T06:17:43.536Z,37.35
2019-05-18T06:18:43.526Z,35.03
2019-05-18T06:19:43.488Z,35.38
2019-05-18T06:20:51.534Z,32.78
2019-05-18T06:21:44.462Z,34.95
2019-05-18T06:22:43.455Z,35.95
2019-05-18T06:23:43.464Z,37.31
2019-05-18T06:24:43.431Z,31.08
2019-05-18T06:25:43.420Z,32.27
2019-05-18T06:26:43.404Z,31.31
2019-05-18T06:27:43.413Z,32.16
2019-05-18T06:28:43.388Z,38.07
2019-05-18T06:29:43.376Z,34.09
2019-05-18T06:30:43.366Z,34.50
2019-05-18T06:31:43.389Z,28.47
2019-05-18T06:32:43.339Z,28.65
2019-05-18T06:33:43.328Z,33.11
2019-05-18T06:34:43.332Z,29.28
2019-05-18T06:35:43.959Z,28.70
2019-05-18T06:36:43.292Z,30.00
2019-05-18T06:37:43.284Z,32.36
2019-05-18T06:38:43.284Z,26.09
2019-05-18T06:39:43.255Z,34.34
2019-05-18T06:40:43.246Z,31.50
2019-05-18T06:41:43.234Z,36.70
2019-05-18T06:42:43.224Z,38.48
2019-05-18T06:43:43.228Z,32.57
2019-05-18T06:44:43.214Z,31.46
2019-05-18T06:45:43.238Z,31.04
2019-05-18T06:46:43.230Z,35.92
2019-05-18T06:47:43.174Z,29.21
2019-05-18T06:48:43.173Z,27.74
2019-05-18T06:49:43.161Z,28.03
2019-05-18T06:50:43.151Z,30.63
2019-05-18T06:51:43.119Z,33.85
2019-05-18T06:52:43.112Z,29.53
2019-05-18T06:53:43.098Z,34.23
2019-05-18T06:54:43.088Z,34.56
2019-05-18T06:55:43.082Z,28.35
2019-05-18T06:56:43.100Z,25.21
2019-05-18T06:57:43.051Z,31.55
2019-05-18T06:58:43.042Z,28.74
2019-05-18T06:59:43.049Z,31.91
2019-05-18T07:00:43.016Z,32.94
2019-05-18T07:01:43.015Z,31.52
2019-05-18T07:02:42.997Z,29.76
2019-05-18T07:03:45.043Z,36.24
2019-05-18T07:04:44.683Z,32.38
2019-05-18T07:05:42.965Z,31.22
2019-05-18T07:06:42.957Z,30.36
2019-05-18T07:07:42.989Z,31.45
2019-05-18T07:08:42.928Z,31.71
2019-05-18T07:09:42.911Z,33.60
2019-05-18T07:10:42.910Z,33.95
2019-05-18T07:11:42.913Z,29.14
2019-05-18T07:12:42.901Z,35.17
2019-05-18T07:13:42.890Z,35.58
2019-05-18T07:14:42.864Z,37.74
2019-05-18T07:15:42.850Z,30.07
2019-05-18T07:16:42.839Z,27.79
2019-05-18T07:17:42.826Z,29.45
2019-05-18T07:18:42.840Z,29.85
2019-05-18T07:19:42.803Z,25.95
2019-05-18T07:20:42.789Z,26.93
2019-05-18T07:21:42.781Z,29.46
2019-05-18T07:22:42.772Z,35.02
2019-05-18T07:23:43.922Z,28.79
2019-05-18T07:24:42.743Z,35.97
2019-05-18T07:25:42.734Z,28.07
2019-05-18T07:26:42.729Z,35.40
2019-05-18T07:27:42.715Z,34.80
2019-05-18T07:28:42.705Z,30.71
2019-05-18T07:29:42.708Z,28.59
2019-05-18T07:30:42.675Z,32.77
2019-05-18T07:31:42.663Z,27.68
2019-05-18T07:32:42.651Z,33.89
2019-05-18T07:33:42.645Z,29.31
2019-05-18T07:34:42.641Z,28.39
2019-05-18T07:35:42.644Z,32.29
2019-05-18T07:36:42.612Z,32.32
2019-05-18T07:37:42.599Z,31.79
2019-05-18T07:38:42.607Z,29.97
2019-05-18T07:39:42.574Z,22.75
2019-05-18T07:40:42.564Z,29.57
2019-05-18T07:41:46.911Z,23.21
2019-05-18T07:42:42.541Z,25.68
2019-05-18T07:43:42.550Z,29.80
2019-05-18T07:44:42.518Z,23.81
2019-05-18T07:45:42.515Z,28.16
2019-05-18T07:46:42.520Z,25.48
2019-05-18T07:47:42.479Z,23.92
2019-05-18T07:48:42.475Z,26.58
2019-05-18T07:49:42.461Z,27.49
2019-05-18T07:50:42.455Z,25.45
2019-05-18T07:51:42.459Z,32.27
2019-05-18T07:52:42.449Z,23.57
2019-05-18T07:53:42.420Z,26.15
2019-05-18T07:54:42.402Z,27.71
2019-05-18T07:55:42.391Z,28.63
2019-05-18T07:56:42.394Z,32.98
2019-05-18T07:57:42.414Z,26.51
2019-05-18T07:58:42.354Z,32.18
2019-05-18T07:59:42.394Z,30.48
2019-05-18T08:00:42.341Z,28.43
2019-05-18T08:01:42.334Z,23.39
2019-05-18T08:02:42.329Z,27.31
2019-05-18T08:03:42.296Z,20.72
2019-05-18T08:04:42.284Z,18.85
2019-05-18T08:05:42.273Z,18.98
2019-05-18T08:06:42.266Z,18.37
2019-05-18T08:07:42.260Z,25.19
2019-05-18T08:08:42.247Z,23.33
2019-05-18T08:09:42.227Z,26.71
2019-05-18T08:10:43.784Z,20.92
2019-05-18T08:11:42.253Z,21.30
2019-05-18T08:12:42.228Z,20.61
2019-05-18T08:13:42.188Z,19.57
2019-05-18T08:14:42.175Z,20.26
2019-05-18T08:15:42.159Z,18.76
2019-05-18T08:16:42.153Z,17.66
2019-05-18T08:17:42.149Z,19.94
2019-05-18T08:18:42.146Z,16.44
2019-05-18T08:19:42.133Z,18.78
2019-05-18T08:20:42.102Z,22.58
2019-05-18T08:21:52.686Z,18.99
2019-05-18T08:22:43.078Z,17.10
2019-05-18T08:23:42.069Z,20.15
2019-05-18T08:24:42.083Z,19.07
2019-05-18T08:25:42.041Z,25.53
2019-05-18T08:26:42.032Z,20.74
2019-05-18T08:27:42.019Z,18.74
2019-05-18T08:28:42.035Z,24.41
2019-05-18T08:29:42.002Z,29.48
2019-05-18T08:30:42.001Z,25.53
2019-05-18T08:31:41.981Z,26.66
2019-05-18T08:32:41.974Z,24.38
2019-05-18T08:33:41.953Z,28.39
2019-05-18T08:34:41.947Z,17.31
2019-05-18T08:35:41.941Z,26.35
2019-05-18T08:36:41.947Z,22.00
2019-05-18T08:37:41.914Z,19.88
2019-05-18T08:38:41.891Z,22.29
2019-05-18T08:39:41.897Z,25.26
2019-05-18T08:40:41.931Z,28.40
2019-05-18T08:41:41.870Z,22.14
2019-05-18T08:42:41.852Z,22.45
2019-05-18T08:43:41.839Z,23.20
2019-05-18T08:44:41.847Z,20.40
2019-05-18T08:45:41.818Z,20.70
2019-05-18T08:46:41.810Z,16.77
2019-05-18T08:47:41.809Z,18.80
2019-05-18T08:48:41.790Z,14.17
2019-05-18T08:49:41.768Z,11.79
2019-05-18T08:50:41.794Z,19.21
2019-05-18T08:51:41.758Z,16.03
2019-05-18T08:52:41.748Z,15.01
2019-05-18T08:53:41.724Z,11.45
2019-05-18T08:54:41.715Z,14.42
2019-05-18T08:55:41.712Z,12.46
2019-05-18T08:56:41.694Z,18.20
2019-05-18T08:57:41.688Z,15.96
2019-05-18T08:58:41.693Z,16.89
2019-05-18T08:59:41.705Z,12.19
2019-05-18T09:00:41.664Z,15.99
2019-05-18T09:01:41.663Z,19.25
2019-05-18T09:02:41.624Z,16.15
2019-05-18T09:03:41.617Z,19.10
2019-05-18T09:04:41.597Z,21.63
2019-05-18T09:05:41.590Z,13.17
2019-05-18T09:06:41.594Z,17.74
2019-05-18T09:07:41.557Z,21.55
2019-05-18T09:08:41.555Z,20.86
2019-05-18T09:09:41.564Z,14.94
2019-05-18T09:10:41.531Z,22.06
2019-05-18T09:11:41.524Z,17.52
2019-05-18T09:12:41.504Z,19.19
2019-05-18T09:13:41.502Z,18.67
2019-05-18T09:14:41.489Z,19.05
2019-05-18T09:15:41.530Z,13.97
2019-05-18T09:16:41.468Z,17.32
2019-05-18T09:17:41.454Z,12.72
2019-05-18T09:18:41.458Z,12.98
2019-05-18T09:19:41.454Z,16.63
2019-05-18T09:20:41.434Z,15.84
2019-05-18T09:21:41.410Z,10.52
2019-05-18T09:22:41.397Z,12.76
2019-05-18T09:23:41.384Z,13.99
2019-05-18T09:24:41.396Z,14.11
2019-05-18T09:25:41.372Z,19.90
2019-05-18T09:26:41.350Z,13.99
2019-05-18T09:27:41.339Z,10.67
2019-05-18T09:28:41.327Z,13.82
2019-05-18T09:29:41.367Z,16.96
2019-05-18T09:30:41.493Z,13.62
2019-05-18T09:31:41.300Z,24.87
2019-05-18T09:32:41.293Z,14.39
2019-05-18T09:33:41.273Z,18.99
2019-05-18T09:34:41.344Z,14.87
2019-05-18T09:35:41.244Z,17.88
2019-05-18T09:36:41.255Z,12.20
2019-05-18T09:37:41.247Z,15.72
2019-05-18T09:38:41.417Z,15.14
2019-05-18T09:39:41.252Z,14.76
2019-05-18T09:40:41.197Z,20.02
2019-05-18T09:41:41.208Z,24.87
2019-05-18T09:42:41.176Z,21.73
2019-05-18T09:43:41.161Z,20.81
2019-05-18T09:44:41.150Z,21.79
2019-05-18T09:45:41.138Z,15.25
2019-05-18T09:46:41.126Z,21.33
2019-05-18T09:47:41.128Z,12.31
2019-05-18T09:48:41.100Z,10.85
2019-05-18T09:49:41.105Z,12.11
2019-05-18T09:50:41.209Z,16.91
2019-05-18T09:51:41.080Z,16.53
2019-05-18T09:52:45.194Z,11.36
2019-05-18T09:53:51.046Z,12.06
2019-05-18T09:54:42.032Z,9.65
2019-05-18T09:55:41.024Z,13.25
2019-05-18T09:56:41.009Z,12.82
2019-05-18T09:57:40.998Z,17.05
2019-05-18T09:58:40.995Z,11.21
2019-05-18T09:59:40.996Z,18.12
2019-05-18T10:00:41.046Z,9.54
2019-05-18T10:01:40.960Z,11.72
2019-05-18T10:02:40.968Z,12.99
2019-05-18T10:03:41.124Z,10.15
2019-05-18T10:04:40.944Z,10.96
2019-05-18T10:05:40.923Z,14.56
2019-05-18T10:06:40.910Z,12.13
2019-05-18T10:07:40.895Z,11.49
2019-05-18T10:08:40.896Z,9.74
2019-05-18T10:09:40.864Z,19.82
2019-05-18T10:10:40.937Z,18.78
2019-05-18T10:11:40.839Z,16.62
2019-05-18T10:12:40.833Z,22.24
2019-05-18T10:13:40.820Z,23.02
2019-05-18T10:14:40.834Z,18.81
2019-05-18T10:15:40.798Z,17.81
2019-05-18T10:16:40.815Z,14.27
2019-05-18T10:17:40.786Z,19.08
2019-05-18T10:18:40.769Z,12.53
2019-05-18T10:19:40.766Z,17.46
2019-05-18T10:20:40.745Z,21.95
2019-05-18T10:21:40.762Z,22.70
2019-05-18T10:22:53.357Z,24.52
2019-05-18T10:23:41.703Z,22.32
2019-05-18T10:24:40.701Z,19.80
2019-05-18T10:25:40.680Z,30.59
2019-05-18T10:26:40.681Z,28.33
2019-05-18T10:27:40.684Z,24.86
2019-05-18T10:28:40.652Z,26.73
2019-05-18T10:29:40.666Z,25.53
2019-05-18T10:30:40.637Z,21.77
2019-05-18T10:31:40.632Z,20.06
2019-05-18T10:32:40.625Z,6.61
2019-05-18T10:33:40.618Z,20.41
2019-05-18T10:34:40.582Z,22.18
2019-05-18T10:35:40.576Z,24.40
2019-05-18T10:36:40.577Z,24.11
2019-05-18T10:37:40.551Z,17.71
2019-05-18T10:38:40.563Z,14.45
2019-05-18T10:39:40.526Z,21.77
2019-05-18T10:40:40.516Z,11.61
2019-05-18T10:41:40.502Z,23.28
2019-05-18T10:42:40.527Z,11.84
2019-05-18T10:43:40.492Z,15.52
2019-05-18T10:44:40.486Z,17.48
2019-05-18T10:45:44.559Z,21.56
2019-05-18T10:46:40.481Z,16.72
2019-05-18T10:47:40.449Z,13.12
2019-05-18T10:48:40.437Z,16.91
2019-05-18T10:49:40.420Z,19.50
2019-05-18T10:50:40.402Z,22.72
2019-05-18T10:51:40.392Z,22.96
2019-05-18T10:52:40.381Z,22.44
2019-05-18T10:53:40.372Z,13.63
2019-05-18T10:54:40.429Z,15.03
2019-05-18T10:55:40.404Z,18.89
2019-05-18T10:56:40.380Z,13.57
2019-05-18T10:57:40.325Z,12.52
2019-05-18T10:58:40.315Z,13.73
2019-05-18T10:59:40.333Z,14.25
2019-05-18T11:00:40.291Z,13.74
2019-05-18T11:01:43.593Z,11.79
2019-05-18T11:02:40.364Z,19.28
2019-05-18T11:03:40.268Z,14.00
2019-05-18T11:04:40.271Z,19.45
2019-05-18T11:05:40.245Z,22.41
2019-05-18T11:06:40.231Z,22.23
2019-05-18T11:07:40.217Z,20.28
2019-05-18T11:08:40.199Z,17.27
2019-05-18T11:09:40.188Z,16.18
2019-05-18T11:10:40.175Z,15.30
2019-05-18T11:11:40.184Z,16.51
2019-05-18T11:12:40.171Z,7.90
2019-05-18T11:13:40.144Z,19.37
2019-05-18T11:14:40.148Z,19.83
2019-05-18T11:15:40.137Z,18.88
2019-05-18T11:16:40.107Z,18.62
2019-05-18T11:17:40.153Z,14.80
2019-05-18T11:18:40.085Z,18.02
2019-05-18T11:19:40.082Z,11.57
2019-05-18T11:20:40.074Z,17.16
2019-05-18T11:21:40.059Z,22.98
2019-05-18T11:22:40.048Z,20.48
2019-05-18T11:23:44.145Z,14.37
2019-05-18T11:24:40.024Z,9.99
2019-05-18T11:25:40.009Z,18.51
2019-05-18T11:26:40.000Z,18.98
2019-05-18T11:27:39.989Z,11.59
2019-05-18T11:28:39.989Z,15.72
2019-05-18T11:29:39.992Z,11.59
2019-05-18T11:30:39.955Z,19.62
2019-05-18T11:31:39.946Z,21.14
2019-05-18T11:32:39.952Z,22.62
2019-05-18T11:33:39.921Z,17.95
2019-05-18T11:34:39.924Z,2.85
2019-05-18T11:35:39.898Z,22.45
2019-05-18T11:36:39.886Z,19.98
2019-05-18T11:37:39.875Z,23.64
2019-05-18T11:38:39.889Z,11.91
2019-05-18T11:39:39.885Z,16.53
2019-05-18T11:40:39.858Z,20.42
2019-05-18T11:41:39.830Z,21.42
2019-05-18T11:42:39.823Z,21.42
2019-05-18T11:43:39.851Z,18.69
2019-05-18T11:44:39.794Z,16.96
2019-05-18T11:45:39.800Z,19.72
2019-05-18T11:46:39.802Z,4.96
2019-05-18T11:47:39.767Z,22.89
2019-05-18T11:48:39.820Z,9.63
2019-05-18T11:49:39.736Z,26.20
2019-05-18T11:50:39.735Z,7.41
2019-05-18T11:51:39.732Z,26.63
2019-05-18T11:52:39.706Z,20.36
2019-05-18T11:53:39.700Z,14.29
2019-05-18T11:54:39.694Z,0.64
2019-05-18T11:55:39.679Z,23.25
2019-05-18T11:56:39.662Z,14.45
2019-05-18T11:57:39.666Z,26.59
2019-05-18T11:58:39.642Z,31.93
2019-05-18T11:59:39.633Z,34.23
2019-05-18T12:00:39.622Z,20.58
2019-05-18T12:01:39.608Z,39.91
2019-05-18T12:02:39.606Z,17.66
2019-05-18T12:03:39.589Z,31.06
2019-05-18T12:04:39.577Z,28.41
2019-05-18T12:05:39.561Z,32.93
2019-05-18T12:06:39.620Z,25.91
2019-05-18T12:07:39.543Z,20.89
2019-05-18T12:08:39.539Z,24.51
2019-05-18T12:09:39.515Z,15.40
2019-05-18T12:10:39.509Z,23.82
2019-05-18T12:11:39.498Z,35.39
2019-05-18T12:12:39.493Z,38.09
2019-05-18T12:13:39.481Z,36.67
2019-05-18T12:14:39.463Z,15.84
2019-05-18T12:15:39.448Z,24.40
2019-05-18T12:16:39.445Z,12.96
2019-05-18T12:17:39.441Z,29.75
2019-05-18T12:18:39.423Z,15.60
2019-05-18T12:19:39.449Z,20.71
2019-05-18T12:20:39.396Z,24.99
2019-05-18T12:21:39.383Z,29.63
2019-05-18T12:22:39.371Z,19.21
2019-05-18T12:23:39.354Z,31.32
2019-05-18T12:24:39.347Z,16.67
2019-05-18T12:25:39.332Z,25.05
2019-05-18T12:26:39.324Z,22.07
2019-05-18T12:27:39.615Z,22.36
2019-05-18T12:28:39.323Z,17.89
2019-05-18T12:29:39.315Z,22.94
2019-05-18T12:30:39.305Z,28.90
2019-05-18T12:31:39.269Z,14.14
2019-05-18T12:32:39.261Z,17.66
2019-05-18T12:33:39.241Z,20.70
2019-05-18T12:34:39.324Z,25.47
2019-05-18T12:35:39.231Z,25.17
2019-05-18T12:36:39.259Z,19.09
2019-05-18T12:37:39.200Z,26.57
2019-05-18T12:38:39.249Z,4.89
2019-05-18T12:39:39.180Z,22.34
2019-05-18T12:40:39.195Z,22.00
2019-05-18T12:41:39.159Z,14.52
2019-05-18T12:42:39.143Z,22.20
2019-05-18T12:43:39.130Z,30.74
2019-05-18T12:44:39.120Z,25.10
2019-05-18T12:45:39.119Z,15.79
2019-05-18T12:46:39.122Z,4.48
2019-05-18T12:47:39.108Z,34.92
2019-05-18T12:48:39.079Z,-3.14
2019-05-18T12:49:39.068Z,17.08
2019-05-18T12:50:39.057Z,17.26
2019-05-18T12:51:39.042Z,23.59
2019-05-18T12:52:39.036Z,20.17
2019-05-18T12:53:39.022Z,25.49